createdAt,value
2023-02-28T00:04:54.209Z,8.27
2023-02-28T00:09:56.312Z,9.50
2023-02-28T00:14:59.714Z,7.27
2023-02-28T00:20:11.287Z,8.57
2023-02-28T00:25:14.976Z,9.53
2023-02-28T00:30:19.776Z,9.87
2023-02-28T00:35:22.171Z,10.30
2023-02-28T00:40:24.436Z,7.23
2023-02-28T00:45:28.338Z,8.50
2023-02-28T00:50:30.925Z,8.37
2023-02-28T00:55:32.944Z,8.57
2023-02-28T01:00:36.246Z,7.30
2023-02-28T01:05:38.296Z,9.13
2023-02-28T01:10:40.585Z,8.67
2023-02-28T01:15:47.987Z,9.93
2023-02-28T01:20:50.114Z,12.37
2023-02-28T01:25:52.529Z,8.90
2023-02-28T01:30:56.046Z,9.27
2023-02-28T01:36:01.405Z,11.60
2023-02-28T01:41:04.094Z,10.17
2023-02-28T01:46:08.031Z,11.80
2023-02-28T01:51:13.452Z,9.07
2023-02-28T01:56:21.610Z,10.77
2023-02-28T02:01:28.976Z,10.63
2023-02-28T02:06:36.596Z,9.77
2023-02-28T02:11:38.978Z,11.70
2023-02-28T02:16:57.692Z,9.50
2023-02-28T02:22:16.330Z,9.73
2023-02-28T02:27:28.780Z,11.83
2023-02-28T02:32:58.728Z,11.57
2023-02-28T02:38:09.572Z,10.47
2023-02-28T02:43:19.567Z,11.50
2023-02-28T02:48:26.422Z,11.17
2023-02-28T02:53:34.558Z,12.57
2023-02-28T02:58:43.138Z,9.97
2023-02-28T03:03:47.507Z,14.60
2023-02-28T03:08:51.043Z,13.27
2023-02-28T03:14:21.439Z,11.77
2023-02-28T03:19:54.770Z,12.47
2023-02-28T03:25:06.964Z,12.83
2023-02-28T03:30:15.477Z,11.33
2023-02-28T03:35:23.212Z,10.33
2023-02-28T03:40:32.465Z,11.07
2023-02-28T03:45:37.988Z,12.10
2023-02-28T03:50:42.038Z,15.77
2023-02-28T03:55:50.410Z,12.53
2023-02-28T04:00:59.937Z,11.13
2023-02-28T04:06:02.237Z,10.97
2023-02-28T04:11:11.101Z,12.40
2023-02-28T04:16:18.802Z,12.63
2023-02-28T04:21:27.950Z,19.10
2023-02-28T04:26:32.993Z,12.40
2023-02-28T04:31:35.253Z,11.70
2023-02-28T04:36:38.352Z,11.87
2023-02-28T04:41:42.098Z,10.90
2023-02-28T04:46:44.505Z,12.70
2023-02-28T04:51:46.748Z,10.20
2023-02-28T04:56:51.062Z,12.17
2023-02-28T05:01:53.378Z,11.70
2023-02-28T05:06:56.556Z,11.27
2023-02-28T05:11:59.866Z,13.97
2023-02-28T05:17:02.215Z,11.33
2023-02-28T05:22:04.551Z,11.70
2023-02-28T05:27:10.223Z,13.87
2023-02-28T05:32:13.016Z,11.67
2023-02-28T05:37:16.779Z,13.23
2023-02-28T05:42:20.359Z,16.50
2023-02-28T05:47:22.351Z,11.80
2023-02-28T05:52:24.683Z,11.40
2023-02-28T05:57:28.558Z,11.50
2023-02-28T06:02:30.889Z,14.30
2023-02-28T06:07:32.692Z,14.57
2023-02-28T06:12:35.987Z,17.70
2023-02-28T06:17:38.223Z,14.90
2023-02-28T06:22:40.175Z,12.87
2023-02-28T06:27:44.278Z,13.10
2023-02-28T06:32:46.781Z,13.30
2023-02-28T06:37:49.383Z,13.37
2023-02-28T06:42:52.844Z,15.80
2023-02-28T06:47:55.335Z,18.23
2023-02-28T06:52:57.488Z,15.40
2023-02-28T06:58:01.478Z,17.00
2023-02-28T07:03:03.733Z,13.83
2023-02-28T07:08:07.428Z,13.63
2023-02-28T07:13:12.037Z,15.17
2023-02-28T07:18:14.451Z,13.77
2023-02-28T07:23:16.518Z,12.90
2023-02-28T07:28:20.448Z,12.10
2023-02-28T07:33:22.388Z,13.17
2023-02-28T07:38:24.304Z,12.87
2023-02-28T07:43:27.798Z,14.30
2023-02-28T07:48:30.161Z,13.33
2023-02-28T07:53:32.794Z,11.87
2023-02-28T07:58:39.511Z,17.80
2023-02-28T08:03:42.838Z,13.87
2023-02-28T08:08:45.620Z,13.00
2023-02-28T08:13:49.455Z,15.03
2023-02-28T08:18:52.301Z,12.37
2023-02-28T08:23:54.892Z,15.90
2023-02-28T08:29:00.353Z,13.30
2023-02-28T08:34:06.973Z,11.97
2023-02-28T08:39:10.177Z,11.90
2023-02-28T08:44:13.884Z,14.70
2023-02-28T08:49:17.121Z,11.17
2023-02-28T08:54:20.611Z,12.87
2023-02-28T08:59:24.593Z,12.03
2023-02-28T09:04:26.750Z,10.53
2023-02-28T09:09:28.820Z,10.50
2023-02-28T09:14:33.013Z,11.27
2023-02-28T09:19:35.236Z,9.30
2023-02-28T09:24:38.604Z,9.97
2023-02-28T09:29:42.113Z,11.63
2023-02-28T09:34:44.587Z,9.37
2023-02-28T09:39:46.895Z,9.43
2023-02-28T09:44:51.167Z,8.57
2023-02-28T09:49:53.488Z,10.77
2023-02-28T09:54:56.078Z,15.00
2023-02-28T10:00:11.619Z,13.57
2023-02-28T10:05:17.018Z,8.57
2023-02-28T10:10:26.807Z,10.10
2023-02-28T10:15:34.421Z,10.83
2023-02-28T10:20:41.183Z,9.67
2023-02-28T10:25:49.228Z,10.67
2023-02-28T10:30:55.635Z,8.67
2023-02-28T10:35:58.169Z,11.97
2023-02-28T10:41:08.235Z,9.53
2023-02-28T10:46:27.064Z,9.27
2023-02-28T10:51:39.122Z,10.10
2023-02-28T10:56:41.478Z,9.10
2023-02-28T11:01:47.389Z,12.53
2023-02-28T11:06:50.118Z,9.17
2023-02-28T11:11:53.790Z,10.03
2023-02-28T11:17:04.502Z,10.47
2023-02-28T11:22:07.711Z,13.47
2023-02-28T11:27:28.078Z,10.47
2023-02-28T11:32:33.554Z,9.88
2023-02-28T11:37:36.019Z,10.60
2023-02-28T11:42:52.869Z,9.90
2023-02-28T11:48:04.433Z,10.03
2023-02-28T11:53:17.405Z,11.07
2023-02-28T11:58:46.690Z,10.10
2023-02-28T12:04:01.829Z,11.18
2023-02-28T12:09:14.784Z,9.75
2023-02-28T12:14:32.315Z,8.50
2023-02-28T12:19:45.368Z,9.18
2023-02-28T12:25:05.382Z,10.03
2023-02-28T12:30:15.909Z,11.23
2023-02-28T12:35:25.294Z,10.27
2023-02-28T12:40:32.020Z,9.90
2023-02-28T12:45:42.953Z,10.30
2023-02-28T12:50:46.646Z,10.17
2023-02-28T12:55:52.823Z,10.23
2023-02-28T13:01:33.119Z,12.37
2023-02-28T13:06:52.589Z,9.73
2023-02-28T13:11:56.955Z,9.65
2023-02-28T13:17:03.696Z,9.52
2023-02-28T13:22:17.897Z,8.52
2023-02-28T13:27:35.892Z,9.65
2023-02-28T13:32:41.661Z,11.82
2023-02-28T13:37:52.993Z,9.10
2023-02-28T13:42:55.501Z,9.13
2023-02-28T13:48:02.169Z,8.45
2023-02-28T13:53:36.365Z,10.35
2023-02-28T13:58:57.027Z,9.07
2023-02-28T14:04:41.095Z,9.30
2023-02-28T14:09:58.750Z,8.77
2023-02-28T14:15:01.112Z,9.98
2023-02-28T14:20:04.411Z,11.20
2023-02-28T14:25:20.983Z,9.00
2023-02-28T14:30:45.606Z,8.98
2023-02-28T14:35:58.976Z,9.45
2023-02-28T14:41:07.373Z,9.20
2023-02-28T14:46:09.635Z,9.77
2023-02-28T14:51:11.913Z,10.03
2023-02-28T14:56:24.526Z,15.20
2023-02-28T15:01:28.186Z,14.23
2023-02-28T15:06:30.759Z,12.60
2023-02-28T15:11:34.554Z,15.43
2023-02-28T15:16:41.824Z,16.33
2023-02-28T15:21:48.268Z,15.77
2023-02-28T15:26:56.770Z,13.50
2023-02-28T15:32:03.082Z,13.73
2023-02-28T15:37:09.568Z,16.23
2023-02-28T15:42:21.896Z,15.97
2023-02-28T15:47:26.151Z,16.00
2023-02-28T15:52:35.898Z,15.77
2023-02-28T15:57:42.633Z,17.90
2023-02-28T16:02:46.101Z,17.63
2023-02-28T16:07:49.404Z,16.03
2023-02-28T16:12:53.126Z,46.17
2023-02-28T16:17:56.605Z,21.47
2023-02-28T16:23:02.461Z,17.43
2023-02-28T16:28:09.245Z,18.77
2023-02-28T16:33:12.361Z,21.27
2023-02-28T16:38:15.220Z,19.77
2023-02-28T16:43:23.312Z,19.27
2023-02-28T16:48:25.769Z,19.33
2023-02-28T16:53:28.429Z,17.67
2023-02-28T16:58:32.575Z,18.20
2023-02-28T17:03:36.244Z,18.13
2023-02-28T17:08:39.069Z,22.57
2023-02-28T17:13:43.117Z,19.47
2023-02-28T17:18:47.797Z,18.60
2023-02-28T17:23:50.589Z,21.50
2023-02-28T17:28:56.978Z,20.40
2023-02-28T17:34:00.504Z,22.47
2023-02-28T17:39:07.252Z,32.83
2023-02-28T17:44:14.885Z,24.10
2023-02-28T17:49:19.314Z,21.93
2023-02-28T17:54:22.792Z,22.23
2023-02-28T17:59:27.020Z,20.30
2023-02-28T18:04:30.165Z,21.13
2023-02-28T18:09:32.906Z,24.57
2023-02-28T18:14:38.417Z,35.50
2023-02-28T18:19:42.032Z,20.10
2023-02-28T18:24:44.982Z,24.73
2023-02-28T18:29:50.182Z,23.03
2023-02-28T18:34:53.718Z,22.87
2023-02-28T18:39:58.469Z,23.30
2023-02-28T18:45:07.668Z,22.47
2023-02-28T18:50:12.294Z,26.50
2023-02-28T18:55:19.430Z,20.50
2023-02-28T19:00:27.529Z,23.67
2023-02-28T19:05:36.007Z,23.50
2023-02-28T19:10:42.601Z,26.23
2023-02-28T19:15:56.486Z,21.00
2023-02-28T19:21:01.474Z,21.93
2023-02-28T19:26:10.708Z,26.37
2023-02-28T19:31:19.772Z,26.07
2023-02-28T19:36:24.944Z,26.57
2023-02-28T19:41:28.755Z,25.33
2023-02-28T19:46:35.073Z,24.00
2023-02-28T19:51:45.008Z,24.83
2023-02-28T19:56:48.230Z,22.10
2023-02-28T20:01:55.362Z,22.77
2023-02-28T20:06:59.485Z,28.13
2023-02-28T20:12:07.111Z,26.27
2023-02-28T20:17:16.468Z,30.47
2023-02-28T20:22:20.381Z,24.27
2023-02-28T20:27:24.317Z,24.87
2023-02-28T20:32:30.776Z,27.90
2023-02-28T20:37:36.024Z,26.37
2023-02-28T20:42:40.375Z,27.87
2023-02-28T20:47:45.046Z,31.07
2023-02-28T20:52:48.305Z,28.50
2023-02-28T20:57:51.900Z,24.70
2023-02-28T21:02:58.917Z,25.20
2023-02-28T21:08:01.563Z,24.67
2023-02-28T21:13:03.850Z,24.57
2023-02-28T21:18:07.765Z,26.60
2023-02-28T21:23:10.263Z,21.57
2023-02-28T21:28:13.669Z,25.50
2023-02-28T21:33:17.964Z,26.27
2023-02-28T21:38:20.933Z,25.70
2023-02-28T21:43:23.152Z,26.20
2023-02-28T21:48:26.762Z,29.53
2023-02-28T21:53:28.863Z,23.90
2023-02-28T21:58:31.695Z,27.53
2023-02-28T22:03:35.954Z,25.53
2023-02-28T22:08:38.642Z,24.60
2023-02-28T22:13:41.901Z,25.10
2023-02-28T22:18:45.905Z,26.13
2023-02-28T22:23:48.408Z,24.03
2023-02-28T22:28:51.163Z,28.43
2023-02-28T22:33:57.537Z,24.63
2023-02-28T22:39:00.865Z,26.40
2023-02-28T22:44:17.328Z,24.33
2023-02-28T22:49:25.467Z,26.30
2023-02-28T22:54:46.909Z,24.37
2023-02-28T22:59:49.262Z,25.17
2023-02-28T23:04:53.456Z,23.67
2023-02-28T23:09:56.177Z,23.93
2023-02-28T23:14:58.327Z,23.43
2023-02-28T23:20:02.274Z,24.77
2023-02-28T23:25:04.925Z,25.43
2023-02-28T23:30:08.123Z,28.93
2023-02-28T23:35:12.950Z,27.27
2023-02-28T23:40:16.532Z,27.43
2023-02-28T23:45:22.360Z,25.60
2023-02-28T23:50:26.968Z,24.00
2023-02-28T23:55:29.030Z,25.13
